createdAt,value
2018-09-15T00:05:34.934Z,5.30
2018-09-15T00:11:39.793Z,5.80
2018-09-15T00:17:46.551Z,6.27
2018-09-15T00:23:51.349Z,7.23
2018-09-15T00:29:56.133Z,6.50
2018-09-15T00:36:00.881Z,6.50
2018-09-15T00:42:13.209Z,6.97
2018-09-15T00:48:17.975Z,7.50
2018-09-15T00:54:22.650Z,7.07
2018-09-15T01:00:27.445Z,7.57
2018-09-15T01:06:32.220Z,8.73
2018-09-15T01:12:37.374Z,8.17
2018-09-15T01:18:42.035Z,8.50
2018-09-15T01:24:47.343Z,8.53
2018-09-15T01:30:52.085Z,8.73
2018-09-15T01:36:56.835Z,9.67
2018-09-15T01:43:01.511Z,10.30
2018-09-15T01:49:06.353Z,10.33
2018-09-15T01:55:11.694Z,11.07
2018-09-15T02:01:16.732Z,12.00
2018-09-15T02:07:21.552Z,11.20
2018-09-15T02:13:26.213Z,11.23
2018-09-15T02:19:30.960Z,11.97
2018-09-15T02:25:35.760Z,11.47
2018-09-15T02:31:41.777Z,13.00
2018-09-15T02:37:46.477Z,13.20
2018-09-15T02:43:51.611Z,13.10
2018-09-15T02:49:56.435Z,14.27
2018-09-15T02:56:01.362Z,13.47
2018-09-15T03:02:06.125Z,14.27
2018-09-15T03:08:11.516Z,13.73
2018-09-15T03:14:16.498Z,13.50
2018-09-15T03:20:21.288Z,14.17
2018-09-15T03:26:26.090Z,13.77
2018-09-15T03:32:30.781Z,14.43
2018-09-15T03:38:35.622Z,12.80
2018-09-15T03:44:40.927Z,13.83
2018-09-15T03:50:46.223Z,13.40
2018-09-15T03:56:51.541Z,14.40
2018-09-15T04:02:56.327Z,17.60
2018-09-15T04:09:01.094Z,15.47
2018-09-15T04:15:05.869Z,15.53
2018-09-15T04:21:10.856Z,14.53
2018-09-15T04:27:15.531Z,15.10
2018-09-15T04:33:20.554Z,16.00
2018-09-15T04:39:25.669Z,17.73
2018-09-15T04:45:30.668Z,16.00
2018-09-15T04:51:35.311Z,16.20
2018-09-15T04:57:40.883Z,17.67
2018-09-15T05:03:46.037Z,18.23
2018-09-15T05:09:50.763Z,18.67
2018-09-15T05:15:55.607Z,18.77
2018-09-15T05:22:00.459Z,18.77
2018-09-15T05:28:05.242Z,16.60
2018-09-15T05:34:10.016Z,17.47
2018-09-15T05:40:14.856Z,14.83
2018-09-15T05:46:19.529Z,15.23
2018-09-15T05:52:24.368Z,14.13
2018-09-15T05:58:29.038Z,14.03
2018-09-15T06:04:33.750Z,14.23
2018-09-15T06:10:38.426Z,14.20
2018-09-15T06:16:43.342Z,15.10
2018-09-15T06:22:48.003Z,14.63
2018-09-15T06:28:53.115Z,11.87
2018-09-15T06:34:57.977Z,12.57
2018-09-15T06:41:02.773Z,11.70
2018-09-15T06:47:07.601Z,11.47
2018-09-15T06:53:12.281Z,11.20
2018-09-15T06:59:17.108Z,11.90
2018-09-15T07:05:22.048Z,11.30
2018-09-15T07:11:26.718Z,9.30
2018-09-15T07:17:31.424Z,11.57
2018-09-15T07:23:36.117Z,9.47
2018-09-15T07:29:41.359Z,9.60
2018-09-15T07:35:46.255Z,10.67
2018-09-15T07:41:50.914Z,9.50
2018-09-15T07:47:55.684Z,9.07
2018-09-15T07:54:00.461Z,8.70
2018-09-15T08:00:05.450Z,8.37
2018-09-15T08:06:10.390Z,7.93
2018-09-15T08:12:16.262Z,7.73
2018-09-15T08:18:21.038Z,6.30
2018-09-15T08:24:25.779Z,7.73
2018-09-15T08:30:30.505Z,6.30
2018-09-15T08:36:35.192Z,6.13
2018-09-15T08:42:39.980Z,5.67
2018-09-15T08:48:44.638Z,5.77
2018-09-15T08:54:49.739Z,5.60
2018-09-15T09:00:54.547Z,5.23
2018-09-15T09:06:59.351Z,4.80
2018-09-15T09:13:04.115Z,4.40
2018-09-15T09:19:09.108Z,3.20
2018-09-15T09:25:14.704Z,3.60
2018-09-15T09:31:19.488Z,3.33
2018-09-15T09:37:24.155Z,2.83
2018-09-15T09:43:28.874Z,3.27
2018-09-15T09:49:33.528Z,2.73
2018-09-15T09:55:38.240Z,3.30
2018-09-15T10:01:48.408Z,2.83
2018-09-15T10:07:53.101Z,2.40
2018-09-15T10:13:57.828Z,2.10
2018-09-15T10:20:02.787Z,3.53
2018-09-15T10:26:08.072Z,2.10
2018-09-15T10:32:12.807Z,2.10
2018-09-15T10:38:17.443Z,2.50
2018-09-15T10:44:22.216Z,2.10
2018-09-15T10:50:26.881Z,2.07
2018-09-15T10:56:31.610Z,2.40
2018-09-15T11:02:36.877Z,2.20
2018-09-15T11:08:41.831Z,2.40
2018-09-15T11:14:46.734Z,1.67
2018-09-15T11:20:51.439Z,2.43
2018-09-15T11:26:56.451Z,1.93
2018-09-15T11:33:01.458Z,2.23
2018-09-15T11:39:13.242Z,1.73
2018-09-15T11:45:18.599Z,1.67
2018-09-15T11:51:23.780Z,1.30
2018-09-15T11:57:29.124Z,1.30
2018-09-15T12:03:33.752Z,1.37
2018-09-15T12:09:38.511Z,1.60
2018-09-15T12:15:43.706Z,1.53
2018-09-15T12:21:48.435Z,1.53
2018-09-15T12:27:53.295Z,1.67
2018-09-15T12:33:58.104Z,1.60
2018-09-15T12:40:02.895Z,2.03
2018-09-15T12:46:07.830Z,1.87
2018-09-15T12:52:12.577Z,1.10
2018-09-15T12:58:17.636Z,1.50
2018-09-15T13:04:22.316Z,1.60
2018-09-15T13:10:27.065Z,1.63
2018-09-15T13:16:31.776Z,1.43
2018-09-15T13:22:36.467Z,1.00
2018-09-15T13:28:41.971Z,1.20
2018-09-15T13:34:46.636Z,1.30
2018-09-15T13:40:51.434Z,1.30
2018-09-15T13:46:56.238Z,1.43
2018-09-15T13:53:01.204Z,1.70
2018-09-15T13:59:06.313Z,1.37
2018-09-15T14:05:12.524Z,2.20
2018-09-15T14:11:17.383Z,2.07
2018-09-15T14:17:22.124Z,1.80
2018-09-15T14:23:27.064Z,1.53
2018-09-15T14:29:32.258Z,1.90
2018-09-15T14:35:37.259Z,2.77
2018-09-15T14:41:42.336Z,1.80
2018-09-15T14:47:47.828Z,1.67
2018-09-15T14:53:52.631Z,2.10
2018-09-15T14:59:57.332Z,1.90
2018-09-15T15:06:02.069Z,2.10
2018-09-15T15:12:06.776Z,2.30
2018-09-15T15:18:12.291Z,2.50
2018-09-15T15:24:17.288Z,2.50
2018-09-15T15:30:22.133Z,2.63
2018-09-15T15:36:26.828Z,2.77
2018-09-15T15:42:31.500Z,2.27
2018-09-15T15:48:36.371Z,3.17
2018-09-15T15:54:41.302Z,3.13
2018-09-15T16:00:46.750Z,3.17
2018-09-15T16:06:51.750Z,2.83
2018-09-15T16:12:56.417Z,3.47
2018-09-15T16:19:01.316Z,2.77
2018-09-15T16:25:06.085Z,2.53
2018-09-15T16:31:11.744Z,2.27
2018-09-15T16:37:16.720Z,2.73
2018-09-15T16:43:21.452Z,2.97
2018-09-15T16:49:26.163Z,3.27
2018-09-15T16:55:31.101Z,3.60
2018-09-15T17:01:36.265Z,2.70
2018-09-15T17:07:41.139Z,2.87
2018-09-15T17:13:46.121Z,4.27
2018-09-15T17:19:51.424Z,4.00
2018-09-15T17:25:56.129Z,5.80
2018-09-15T17:32:00.979Z,5.10
2018-09-15T17:38:05.941Z,5.10
2018-09-15T17:44:10.948Z,4.90
2018-09-15T17:50:15.804Z,4.13
2018-09-15T17:56:20.515Z,4.73
2018-09-15T18:02:25.300Z,4.70
2018-09-15T18:08:30.175Z,5.00
2018-09-15T18:14:34.901Z,4.50
2018-09-15T18:20:39.730Z,4.80
2018-09-15T18:26:44.515Z,5.00
2018-09-15T18:32:49.268Z,4.40
2018-09-15T18:38:53.953Z,4.57
2018-09-15T18:44:58.770Z,4.60
2018-09-15T18:51:03.564Z,4.97
2018-09-15T18:57:08.366Z,4.13
2018-09-15T19:03:16.822Z,4.03
2018-09-15T19:09:21.557Z,4.80
2018-09-15T19:15:27.320Z,4.10
2018-09-15T19:21:32.279Z,3.90
2018-09-15T19:27:37.094Z,4.40
2018-09-15T19:33:42.097Z,4.10
2018-09-15T19:39:46.897Z,3.60
2018-09-15T19:45:51.627Z,4.43
2018-09-15T19:51:56.410Z,3.97
2018-09-15T19:58:01.274Z,4.87
2018-09-15T20:04:06.384Z,4.03
2018-09-15T20:10:11.361Z,4.00
2018-09-15T20:16:14.325Z,3.33
2018-09-15T20:22:19.056Z,4.73
2018-09-15T20:28:23.754Z,3.97
2018-09-15T20:34:28.448Z,4.60
2018-09-15T20:40:33.385Z,4.00
2018-09-15T20:46:38.133Z,4.17
2018-09-15T20:52:43.631Z,4.10
2018-09-15T20:58:48.554Z,4.17
2018-09-15T21:04:53.364Z,4.10
2018-09-15T21:10:58.080Z,3.80
2018-09-15T21:17:02.884Z,3.70
2018-09-15T21:23:08.277Z,3.50
2018-09-15T21:29:13.328Z,3.90
2018-09-15T21:35:18.616Z,3.80
2018-09-15T21:41:23.308Z,4.73
2018-09-15T21:47:28.349Z,5.10
2018-09-15T21:53:33.190Z,5.50
2018-09-15T21:59:37.989Z,5.47
2018-09-15T22:05:42.884Z,5.83
2018-09-15T22:11:47.770Z,5.50
2018-09-15T22:17:52.705Z,6.10
2018-09-15T22:23:57.610Z,6.20
2018-09-15T22:30:02.303Z,5.93
2018-09-15T22:36:07.402Z,4.80
2018-09-15T22:42:13.243Z,5.60
2018-09-15T22:48:18.181Z,5.20
2018-09-15T22:54:22.907Z,5.80
2018-09-15T23:00:27.564Z,6.27
2018-09-15T23:06:32.496Z,5.70
2018-09-15T23:12:37.244Z,6.87
2018-09-15T23:18:42.830Z,6.63
2018-09-15T23:24:47.640Z,6.50
2018-09-15T23:30:52.400Z,6.90
2018-09-15T23:36:57.354Z,7.00
2018-09-15T23:43:02.344Z,7.60
2018-09-15T23:49:07.061Z,6.70
2018-09-15T23:55:12.859Z,7.90
